Prentice, Illinois
Current Conditions -  °F | °C
As of 4:35 PM on Monday 22 Dec 2014 (Local Time) from KIJX Reporting Station
Moderate Rain Moderate Rain  
Wind Chill: 42°   Ceiling: 400
Heat Index: 46°   Visibility: 5mi
Dew Point: 45°   Wind: 8mph
Humidity: 94%   Direction: 130°SE
Pressure: 29.55"   Gusts: NA
Location:  39.9123°N, 90.0575°W
Report Text: KIJX 222235Z AUTO 13007KT 5SM RA OVC004 08/07 A2955 RMK AO2 P0003 T00800071
Loading
Personal Weather Stations






























Interactive Weather Map New forecast layout! Learn more

10-Day Weather Forecast

Advertisements
Track Severe Weather on mobile